createdAt,value
2023-02-25T00:02:02.585Z,101052.06
2023-02-25T00:04:32.374Z,101057.75
2023-02-25T00:07:02.732Z,101061.75
2023-02-25T00:09:32.052Z,101055.06
2023-02-25T00:12:00.617Z,101055.50
2023-02-25T00:14:29.297Z,101052.94
2023-02-25T00:16:57.935Z,101050.69
2023-02-25T00:19:27.488Z,100974.41
2023-02-25T00:21:57.327Z,101031.94
2023-02-25T00:24:27.441Z,101027.25
2023-02-25T00:26:55.826Z,101041.44
2023-02-25T00:29:24.250Z,101035.19
2023-02-25T00:31:52.843Z,101003.34
2023-02-25T00:34:22.691Z,100913.50
2023-02-25T00:36:51.198Z,100981.97
2023-02-25T00:39:20.034Z,101009.31
2023-02-25T00:41:49.727Z,100993.78
2023-02-25T00:44:18.200Z,101005.63
2023-02-25T00:46:46.658Z,101025.97
2023-02-25T00:49:30.586Z,101020.47
2023-02-25T00:52:01.151Z,100993.78
2023-02-25T00:54:30.192Z,101008.72
2023-02-25T00:57:00.055Z,101024.09
2023-02-25T00:59:28.689Z,100969.03
2023-02-25T01:01:57.223Z,101020.09
2023-02-25T01:04:26.460Z,101003.00
2023-02-25T01:06:55.457Z,101010.78
2023-02-25T01:09:23.848Z,101011.94
2023-02-25T01:11:52.705Z,101000.88
2023-02-25T01:14:24.957Z,100998.63
2023-02-25T01:16:56.283Z,101039.34
2023-02-25T01:19:27.085Z,100973.97
2023-02-25T01:21:58.324Z,101026.75
2023-02-25T01:24:29.153Z,101012.06
2023-02-25T01:27:01.329Z,101041.78
2023-02-25T01:29:33.660Z,101019.38
2023-02-25T01:32:04.682Z,101035.41
2023-02-25T01:34:33.474Z,101053.41
2023-02-25T01:37:04.932Z,101018.94
2023-02-25T01:39:34.231Z,101017.25
2023-02-25T01:42:13.785Z,101033.84
2023-02-25T01:45:32.710Z,101024.38
2023-02-25T01:48:12.694Z,101041.66
2023-02-25T01:50:51.759Z,101026.63
2023-02-25T01:53:25.384Z,101028.97
2023-02-25T01:55:54.756Z,101037.84
2023-02-25T01:58:23.922Z,100993.59
2023-02-25T02:00:55.522Z,101038.16
2023-02-25T02:03:28.301Z,101033.22
2023-02-25T02:06:06.486Z,100996.78
2023-02-25T02:08:36.340Z,101005.72
2023-02-25T02:11:06.733Z,101034.13
2023-02-25T02:13:38.187Z,101037.59
2023-02-25T02:16:32.836Z,100997.28
2023-02-25T02:19:20.218Z,100975.59
2023-02-25T02:22:04.852Z,100973.94
2023-02-25T02:25:17.344Z,101042.72
2023-02-25T02:28:10.494Z,101010.34
2023-02-25T02:30:53.422Z,100974.41
2023-02-25T02:33:31.212Z,101000.09
2023-02-25T02:36:09.456Z,101048.69
2023-02-25T02:38:44.454Z,101037.13
2023-02-25T02:41:26.158Z,100997.50
2023-02-25T02:44:04.628Z,100972.53
2023-02-25T02:46:38.585Z,100928.34
2023-02-25T02:49:15.098Z,101054.44
2023-02-25T02:51:52.911Z,101032.50
2023-02-25T02:54:25.736Z,100975.72
2023-02-25T02:56:57.330Z,100819.03
2023-02-25T02:59:31.825Z,101048.22
2023-02-25T03:02:06.550Z,101044.03
2023-02-25T03:04:43.405Z,100925.78
2023-02-25T03:07:14.559Z,101069.88
2023-02-25T03:09:50.582Z,100833.34
2023-02-25T03:12:19.306Z,101029.38
2023-02-25T03:14:48.104Z,100889.06
2023-02-25T03:17:21.200Z,101025.59
2023-02-25T03:19:57.679Z,100951.69
2023-02-25T03:22:33.099Z,101064.53
2023-02-25T03:25:09.358Z,101028.75
2023-02-25T03:27:41.378Z,101056.25
2023-02-25T03:30:23.380Z,100953.41
2023-02-25T03:32:59.317Z,101009.84
2023-02-25T03:35:31.716Z,101054.63
2023-02-25T03:38:05.223Z,101059.03
2023-02-25T03:40:37.739Z,101062.28
2023-02-25T03:43:11.535Z,101060.44
2023-02-25T03:45:43.898Z,101046.16
2023-02-25T03:48:15.183Z,101044.06
2023-02-25T03:50:52.526Z,101048.03
2023-02-25T03:53:21.322Z,101081.47
2023-02-25T03:55:54.603Z,101075.75
2023-02-25T03:58:25.034Z,101051.63
2023-02-25T04:00:58.851Z,101056.13
2023-02-25T04:03:27.299Z,101079.22
2023-02-25T04:05:57.415Z,101076.84
2023-02-25T04:08:27.630Z,101027.47
2023-02-25T04:10:56.081Z,101085.72
2023-02-25T04:13:24.712Z,101090.81
2023-02-25T04:15:53.229Z,100958.81
2023-02-25T04:18:21.580Z,101059.66
2023-02-25T04:20:49.870Z,101050.34
2023-02-25T04:23:20.259Z,101033.31
2023-02-25T04:25:48.647Z,101088.38
2023-02-25T04:28:17.268Z,101091.75
2023-02-25T04:30:45.947Z,101097.28
2023-02-25T04:33:14.863Z,101100.53
2023-02-25T04:35:44.242Z,101099.41
2023-02-25T04:38:12.663Z,101103.75
2023-02-25T04:40:42.885Z,101099.41
2023-02-25T04:43:11.348Z,101030.19
2023-02-25T04:45:39.847Z,100894.00
2023-02-25T04:48:08.622Z,101105.53
2023-02-25T04:50:37.052Z,100891.75
2023-02-25T04:53:05.764Z,101075.75
2023-02-25T04:55:37.168Z,101085.91
2023-02-25T04:58:06.822Z,101076.91
2023-02-25T05:00:35.190Z,101111.13
2023-02-25T05:03:03.702Z,101070.44
2023-02-25T05:05:32.239Z,101116.69
2023-02-25T05:08:00.571Z,101105.75
2023-02-25T05:10:29.037Z,101103.53
2023-02-25T05:12:58.560Z,101077.66
2023-02-25T05:15:28.451Z,101108.78
2023-02-25T05:17:57.141Z,101035.41
2023-02-25T05:20:25.622Z,101122.94
2023-02-25T05:22:54.126Z,101028.88
2023-02-25T05:25:22.656Z,101063.63
2023-02-25T05:27:51.422Z,101113.09
2023-02-25T05:30:20.714Z,101060.47
2023-02-25T05:32:51.136Z,101061.94
2023-02-25T05:35:20.305Z,100817.03
2023-02-25T05:37:48.820Z,101009.94
2023-02-25T05:40:18.171Z,101091.34
2023-02-25T05:42:49.738Z,101094.13
2023-02-25T05:45:19.040Z,101133.66
2023-02-25T05:47:47.678Z,101044.59
2023-02-25T05:50:17.858Z,101053.69
2023-02-25T05:52:46.905Z,100949.31
2023-02-25T05:55:18.035Z,100885.72
2023-02-25T05:57:46.476Z,101032.84
2023-02-25T06:00:21.413Z,101087.06
2023-02-25T06:02:49.907Z,101141.88
2023-02-25T06:05:20.081Z,101147.69
2023-02-25T06:07:48.420Z,101001.13
2023-02-25T06:10:17.533Z,101140.72
2023-02-25T06:12:49.206Z,101143.28
2023-02-25T06:15:18.160Z,101146.09
2023-02-25T06:17:46.714Z,100945.19
2023-02-25T06:20:16.708Z,100925.72
2023-02-25T06:22:46.739Z,101166.56
2023-02-25T06:25:15.308Z,101143.34
2023-02-25T06:27:43.937Z,101150.97
2023-02-25T06:30:13.848Z,101152.75
2023-02-25T06:32:42.474Z,101144.38
2023-02-25T06:35:11.388Z,101154.72
2023-02-25T06:37:40.500Z,101155.63
2023-02-25T06:40:14.416Z,101087.59
2023-02-25T06:42:43.121Z,101160.28
2023-02-25T06:45:12.205Z,101156.78
2023-02-25T06:47:40.925Z,101109.84
2023-02-25T06:50:11.139Z,101114.09
2023-02-25T06:52:40.502Z,101170.03
2023-02-25T06:55:11.802Z,101136.31
2023-02-25T06:57:40.176Z,101155.69
2023-02-25T07:00:11.008Z,101143.59
2023-02-25T07:02:40.084Z,101101.84
2023-02-25T07:05:09.582Z,101143.59
2023-02-25T07:07:37.976Z,101166.72
2023-02-25T07:10:10.654Z,101170.56
2023-02-25T07:12:39.003Z,101170.47
2023-02-25T07:15:09.705Z,101143.88
2023-02-25T07:17:38.855Z,101176.38
2023-02-25T07:20:09.030Z,101188.56
2023-02-25T07:22:37.528Z,101143.78
2023-02-25T07:25:07.891Z,101155.66
2023-02-25T07:27:37.784Z,101186.94
2023-02-25T07:30:07.462Z,101187.50
2023-02-25T07:32:36.000Z,101185.66
2023-02-25T07:35:04.900Z,101190.94
2023-02-25T07:37:33.585Z,101190.81
2023-02-25T07:40:01.953Z,101189.56
2023-02-25T07:42:30.751Z,101200.94
2023-02-25T07:45:02.845Z,101148.06
2023-02-25T07:47:31.333Z,101166.72
2023-02-25T07:50:00.117Z,101200.84
2023-02-25T07:52:29.225Z,101188.66
2023-02-25T07:54:57.684Z,101209.13
2023-02-25T07:57:26.189Z,101209.97
2023-02-25T07:59:54.646Z,101189.00
2023-02-25T08:02:24.548Z,101175.59
2023-02-25T08:04:53.237Z,101205.81
2023-02-25T08:07:21.672Z,101213.22
2023-02-25T08:09:50.069Z,101207.03
2023-02-25T08:12:18.525Z,101210.75
2023-02-25T08:14:46.950Z,101192.38
2023-02-25T08:17:16.093Z,101208.44
2023-02-25T08:19:46.088Z,101192.00
2023-02-25T08:22:14.489Z,101156.72
2023-02-25T08:24:43.031Z,101213.00
2023-02-25T08:27:11.624Z,101160.06
2023-02-25T08:29:40.088Z,101197.97
2023-02-25T08:32:09.881Z,101222.34
2023-02-25T08:34:38.512Z,101193.50
2023-02-25T08:37:11.321Z,101170.81
2023-02-25T08:39:39.979Z,101195.69
2023-02-25T08:42:08.408Z,101204.22
2023-02-25T08:44:36.934Z,101222.19
2023-02-25T08:47:05.852Z,101216.44
2023-02-25T08:49:34.394Z,101220.44
2023-02-25T08:52:02.812Z,101204.06
2023-02-25T08:54:32.685Z,101214.72
2023-02-25T08:57:01.354Z,101223.09
2023-02-25T08:59:36.113Z,101226.19
2023-02-25T09:02:06.506Z,101199.63
2023-02-25T09:04:35.961Z,101225.94
2023-02-25T09:07:04.626Z,101196.19
2023-02-25T09:09:34.997Z,101214.13
2023-02-25T09:12:05.215Z,101236.03
2023-02-25T09:14:33.760Z,101227.91
2023-02-25T09:17:03.889Z,101208.25
2023-02-25T09:19:38.417Z,101211.50
2023-02-25T09:22:07.580Z,101215.19
2023-02-25T09:24:37.966Z,101229.25
2023-02-25T09:27:07.895Z,101236.44
2023-02-25T09:29:36.925Z,101185.81
2023-02-25T09:32:06.019Z,101240.50
2023-02-25T09:34:34.914Z,101238.91
2023-02-25T09:37:06.702Z,101235.69
2023-02-25T09:39:37.998Z,101220.69
2023-02-25T09:42:10.992Z,101245.38
2023-02-25T09:44:44.644Z,101251.00
2023-02-25T09:47:20.770Z,101255.28
2023-02-25T09:49:56.813Z,101258.59
2023-02-25T09:52:29.896Z,101216.53
2023-02-25T09:55:08.379Z,101228.88
2023-02-25T09:57:42.087Z,101267.81
2023-02-25T10:00:19.836Z,101175.59
2023-02-25T10:02:55.320Z,101218.56
2023-02-25T10:05:30.308Z,101247.88
2023-02-25T10:08:09.533Z,101268.06
2023-02-25T10:10:50.923Z,101270.09
2023-02-25T10:13:31.222Z,101262.84
2023-02-25T10:16:10.270Z,101263.06
2023-02-25T10:18:58.600Z,101280.88
2023-02-25T10:21:44.475Z,101286.63
2023-02-25T10:24:29.658Z,101284.72
2023-02-25T10:27:07.470Z,101278.34
2023-02-25T10:29:42.192Z,101290.75
2023-02-25T10:32:21.251Z,101270.16
2023-02-25T10:34:51.906Z,101291.56
2023-02-25T10:37:27.220Z,101302.06
2023-02-25T10:39:59.973Z,101299.50
2023-02-25T10:42:30.200Z,101303.38
2023-02-25T10:45:08.444Z,101304.00
2023-02-25T10:47:40.149Z,101245.91
2023-02-25T10:50:42.995Z,101297.13
2023-02-25T10:53:17.141Z,101339.13
2023-02-25T10:55:55.113Z,101313.13
2023-02-25T10:58:36.546Z,101320.88
2023-02-25T11:01:15.177Z,101340.66
2023-02-25T11:03:55.152Z,101368.81
2023-02-25T11:06:29.735Z,101363.06
2023-02-25T11:09:00.688Z,101339.84
2023-02-25T11:11:32.473Z,101337.00
2023-02-25T11:14:06.738Z,101329.28
2023-02-25T11:16:38.895Z,101345.19
2023-02-25T11:19:16.129Z,101362.81
2023-02-25T11:21:45.350Z,101352.75
2023-02-25T11:24:17.514Z,101373.94
2023-02-25T11:26:49.105Z,101374.72
2023-02-25T11:29:24.267Z,101369.31
2023-02-25T11:31:56.304Z,101387.41
2023-02-25T11:34:28.245Z,101394.03
2023-02-25T11:36:59.442Z,101386.72
2023-02-25T11:39:30.847Z,101396.28
2023-02-25T11:42:18.911Z,101370.72
2023-02-25T11:44:49.150Z,101385.22
2023-02-25T11:47:26.653Z,101345.69
2023-02-25T11:50:23.888Z,101354.94
2023-02-25T11:53:05.164Z,101377.47
2023-02-25T11:55:57.599Z,101391.66
2023-02-25T11:58:39.614Z,101348.16
2023-02-25T12:01:22.236Z,101372.81
2023-02-25T12:04:24.331Z,101367.97
2023-02-25T12:07:20.012Z,101373.97
2023-02-25T12:10:31.942Z,101370.03
2023-02-25T12:13:44.652Z,101366.03
2023-02-25T12:17:24.348Z,101358.13
2023-02-25T12:20:52.987Z,101345.03
2023-02-25T12:24:21.329Z,101350.69
2023-02-25T12:27:40.192Z,101336.84
2023-02-25T12:30:40.614Z,101321.13
2023-02-25T12:33:35.765Z,101360.53
2023-02-25T12:36:27.210Z,101273.00
2023-02-25T12:39:21.289Z,101364.31
2023-02-25T12:42:01.520Z,101323.94
2023-02-25T12:45:13.333Z,101350.53
2023-02-25T12:48:03.596Z,101313.75
2023-02-25T12:50:53.694Z,101352.19
2023-02-25T12:53:45.313Z,101351.28
2023-02-25T12:56:44.135Z,101292.94
2023-02-25T12:59:58.584Z,101351.38
2023-02-25T13:02:53.934Z,101313.97
2023-02-25T13:06:16.719Z,101345.03
2023-02-25T13:09:15.150Z,101296.09
2023-02-25T13:12:14.181Z,101342.94
2023-02-25T13:14:58.967Z,101337.25
2023-02-25T13:18:09.273Z,101343.78
2023-02-25T13:21:02.920Z,101357.34
2023-02-25T13:23:58.071Z,101357.13
2023-02-25T13:27:25.390Z,101345.53
2023-02-25T13:30:16.507Z,101298.41
2023-02-25T13:33:01.366Z,101369.31
2023-02-25T13:35:46.134Z,101361.88
2023-02-25T13:38:35.685Z,101356.22
2023-02-25T13:41:29.742Z,101364.78
2023-02-25T13:44:34.097Z,101350.31
2023-02-25T13:47:36.433Z,101358.16
2023-02-25T13:50:41.722Z,101348.41
2023-02-25T13:53:33.968Z,101352.81
2023-02-25T13:56:52.029Z,101335.56
2023-02-25T13:59:56.655Z,101362.13
2023-02-25T14:03:02.268Z,101340.19
2023-02-25T14:06:03.747Z,101388.47
2023-02-25T14:08:58.069Z,101345.91
2023-02-25T14:11:51.344Z,101382.50
2023-02-25T14:15:02.662Z,101379.69
2023-02-25T14:18:04.504Z,101398.63
2023-02-25T14:20:51.006Z,101391.03
2023-02-25T14:23:33.999Z,101377.16
2023-02-25T14:26:27.714Z,101375.22
2023-02-25T14:29:16.278Z,101376.44
2023-02-25T14:32:14.908Z,101398.88
2023-02-25T14:35:07.548Z,101380.63
2023-02-25T14:37:47.272Z,101375.22
2023-02-25T14:40:29.868Z,101412.06
2023-02-25T14:43:32.268Z,101417.75
2023-02-25T14:46:16.474Z,101378.50
2023-02-25T14:48:59.292Z,101436.00
2023-02-25T14:51:56.529Z,101432.41
2023-02-25T14:55:26.129Z,101378.59
2023-02-25T14:58:30.571Z,101421.50
2023-02-25T15:01:46.977Z,101446.09
2023-02-25T15:05:30.183Z,101448.47
2023-02-25T15:08:35.712Z,101423.19
2023-02-25T15:11:31.429Z,101459.28
2023-02-25T15:14:47.590Z,101454.72
2023-02-25T15:17:57.544Z,101460.06
2023-02-25T15:20:35.132Z,101419.25
2023-02-25T15:23:13.681Z,101474.13
2023-02-25T15:25:49.937Z,101476.31
2023-02-25T15:28:45.421Z,101435.28
2023-02-25T15:31:39.317Z,101408.97
2023-02-25T15:34:37.686Z,101481.16
2023-02-25T15:37:32.621Z,101469.00
2023-02-25T15:40:34.065Z,101484.72
2023-02-25T15:43:24.773Z,101504.75
2023-02-25T15:45:55.985Z,101508.31
2023-02-25T15:48:37.896Z,101506.06
2023-02-25T15:51:14.226Z,101509.84
2023-02-25T15:53:48.286Z,101475.34
2023-02-25T15:57:01.395Z,101498.94
2023-02-25T15:59:46.261Z,101459.47
2023-02-25T16:02:42.569Z,101525.72
2023-02-25T16:05:27.109Z,101520.41
2023-02-25T16:08:13.416Z,101515.63
2023-02-25T16:10:46.297Z,101541.31
2023-02-25T16:13:24.004Z,101516.53
2023-02-25T16:15:57.452Z,101542.22
2023-02-25T16:18:33.574Z,101545.66
2023-02-25T16:21:07.088Z,101516.72
2023-02-25T16:23:40.772Z,101560.88
2023-02-25T16:26:23.210Z,101494.56
2023-02-25T16:29:07.248Z,101506.56
2023-02-25T16:31:42.811Z,101568.16
2023-02-25T16:34:17.900Z,101559.78
2023-02-25T16:36:55.572Z,101583.28
2023-02-25T16:39:27.637Z,101553.66
2023-02-25T16:41:56.511Z,101537.41
2023-02-25T16:44:32.591Z,101568.81
2023-02-25T16:47:01.108Z,101598.91
2023-02-25T16:49:34.454Z,101572.28
2023-02-25T16:52:03.353Z,101608.91
2023-02-25T16:54:36.172Z,101611.69
2023-02-25T16:57:09.430Z,101603.13
2023-02-25T16:59:40.143Z,101619.69
2023-02-25T17:02:25.646Z,101580.88
2023-02-25T17:04:56.232Z,101626.16
2023-02-25T17:07:27.850Z,101607.03
2023-02-25T17:10:00.611Z,101613.38
2023-02-25T17:12:33.810Z,101639.75
2023-02-25T17:15:09.496Z,101597.09
2023-02-25T17:17:42.685Z,101640.19
2023-02-25T17:20:18.557Z,101607.16
2023-02-25T17:22:47.369Z,101649.41
2023-02-25T17:25:17.793Z,101595.75
2023-02-25T17:27:50.393Z,101621.31
2023-02-25T17:30:45.600Z,101631.41
2023-02-25T17:33:26.220Z,101579.75
2023-02-25T17:35:59.561Z,101656.97
2023-02-25T17:38:29.691Z,101583.38
2023-02-25T17:40:59.332Z,101628.69
2023-02-25T17:43:38.167Z,101643.59
2023-02-25T17:46:26.068Z,101677.81
2023-02-25T17:48:58.244Z,101577.97
2023-02-25T17:51:33.715Z,101682.78
2023-02-25T17:54:08.847Z,101675.53
2023-02-25T17:56:38.106Z,101610.69
2023-02-25T17:59:09.319Z,101697.78
2023-02-25T18:01:54.436Z,101701.88
2023-02-25T18:04:26.596Z,101711.34
2023-02-25T18:06:56.465Z,101714.13
2023-02-25T18:09:39.311Z,101696.03
2023-02-25T18:12:16.706Z,101721.53
2023-02-25T18:14:47.964Z,101685.06
2023-02-25T18:17:28.282Z,101651.56
2023-02-25T18:19:59.257Z,101747.56
2023-02-25T18:22:35.176Z,101727.34
2023-02-25T18:25:07.808Z,101581.78
2023-02-25T18:27:37.916Z,101754.94
2023-02-25T18:30:20.000Z,101735.25
2023-02-25T18:32:49.824Z,101760.16
2023-02-25T18:35:19.546Z,101721.25
2023-02-25T18:37:52.060Z,101771.28
2023-02-25T18:40:26.604Z,101743.75
2023-02-25T18:42:55.574Z,101781.78
2023-02-25T18:45:26.761Z,101737.91
2023-02-25T18:48:00.269Z,101788.13
2023-02-25T18:50:32.322Z,101752.13
2023-02-25T18:53:01.159Z,101770.63
2023-02-25T18:55:32.551Z,101773.56
2023-02-25T18:58:02.186Z,101753.22
2023-02-25T19:00:30.965Z,101771.03
2023-02-25T19:03:03.745Z,101768.81
2023-02-25T19:05:32.535Z,101716.59
2023-02-25T19:08:01.684Z,101761.72
2023-02-25T19:10:37.486Z,101731.97
2023-02-25T19:13:09.006Z,101811.00
2023-02-25T19:15:37.554Z,101809.84
2023-02-25T19:18:07.691Z,101807.25
2023-02-25T19:20:36.339Z,101812.16
2023-02-25T19:23:04.788Z,101793.78
2023-02-25T19:25:36.885Z,101800.28
2023-02-25T19:28:07.415Z,101784.47
2023-02-25T19:30:39.810Z,101800.63
2023-02-25T19:33:11.313Z,101789.59
2023-02-25T19:35:42.369Z,101795.03
2023-02-25T19:38:15.715Z,101817.16
2023-02-25T19:40:45.194Z,101818.56
2023-02-25T19:43:15.156Z,101702.06
2023-02-25T19:45:44.081Z,101799.16
2023-02-25T19:48:14.167Z,101790.44
2023-02-25T19:50:42.978Z,101807.94
2023-02-25T19:53:12.196Z,101837.50
2023-02-25T19:55:40.660Z,101844.97
2023-02-25T19:58:09.202Z,101840.09
2023-02-25T20:00:38.366Z,101853.59
2023-02-25T20:03:07.729Z,101758.06
2023-02-25T20:05:37.447Z,101857.50
2023-02-25T20:08:06.384Z,101833.78
2023-02-25T20:10:35.085Z,101863.25
2023-02-25T20:13:03.676Z,101863.75
2023-02-25T20:15:32.178Z,101814.41
2023-02-25T20:18:00.573Z,101847.38
2023-02-25T20:20:29.020Z,101873.97
2023-02-25T20:22:58.713Z,101829.19
2023-02-25T20:25:29.275Z,101858.84
2023-02-25T20:27:57.786Z,101895.22
2023-02-25T20:30:26.306Z,101867.69
2023-02-25T20:32:54.815Z,101877.41
2023-02-25T20:35:26.326Z,101879.00
2023-02-25T20:38:29.916Z,101893.41
2023-02-25T20:40:58.613Z,101893.63
2023-02-25T20:43:27.487Z,101894.63
2023-02-25T20:45:56.989Z,101864.91
2023-02-25T20:48:30.790Z,101858.34
2023-02-25T20:51:00.982Z,101807.44
2023-02-25T20:53:32.502Z,101762.59
2023-02-25T20:56:00.982Z,101852.47
2023-02-25T20:58:29.367Z,101889.53
2023-02-25T21:00:57.797Z,101835.53
2023-02-25T21:03:26.348Z,101870.38
2023-02-25T21:05:54.786Z,101694.06
2023-02-25T21:08:23.211Z,101886.94
2023-02-25T21:10:53.069Z,101893.66
2023-02-25T21:13:21.482Z,101867.63
2023-02-25T21:15:49.905Z,101750.66
2023-02-25T21:18:18.284Z,101924.44
2023-02-25T21:20:46.812Z,101912.56
2023-02-25T21:23:15.271Z,101931.06
2023-02-25T21:25:43.678Z,101908.19
2023-02-25T21:28:13.498Z,101912.31
2023-02-25T21:30:42.006Z,101949.13
2023-02-25T21:33:12.201Z,101927.94
2023-02-25T21:35:40.759Z,101920.44
2023-02-25T21:38:09.176Z,101842.56
2023-02-25T21:40:37.611Z,101827.97
2023-02-25T21:43:05.999Z,101967.34
2023-02-25T21:45:35.948Z,101943.28
2023-02-25T21:48:04.518Z,101954.00
2023-02-25T21:50:33.791Z,101933.31
2023-02-25T21:53:04.867Z,101978.94
2023-02-25T21:55:33.227Z,101979.50
2023-02-25T21:58:01.616Z,101983.31
2023-02-25T22:00:29.993Z,101987.56
2023-02-25T22:02:59.713Z,101966.66
2023-02-25T22:05:28.229Z,101990.34
2023-02-25T22:07:56.983Z,101908.63
2023-02-25T22:10:25.598Z,101955.50
2023-02-25T22:12:55.445Z,101997.44
2023-02-25T22:15:23.913Z,101995.06
2023-02-25T22:17:52.312Z,102008.88
2023-02-25T22:20:22.829Z,102003.13
2023-02-25T22:22:51.809Z,102011.97
2023-02-25T22:25:20.540Z,102014.47
2023-02-25T22:27:49.103Z,101945.44
2023-02-25T22:30:18.437Z,101951.63
2023-02-25T22:32:46.921Z,101999.13
2023-02-25T22:35:15.578Z,101957.94
2023-02-25T22:37:45.839Z,102013.09
2023-02-25T22:40:14.811Z,102017.72
2023-02-25T22:42:43.289Z,101877.94
2023-02-25T22:45:12.432Z,102022.22
2023-02-25T22:47:40.783Z,102023.34
2023-02-25T22:50:10.412Z,102022.53
2023-02-25T22:52:38.844Z,102016.66
2023-02-25T22:55:11.374Z,101991.44
2023-02-25T22:57:39.884Z,102004.72
2023-02-25T23:00:17.015Z,102014.66
2023-02-25T23:02:45.592Z,101973.66
2023-02-25T23:05:14.281Z,102006.84
2023-02-25T23:07:43.121Z,102009.25
2023-02-25T23:10:13.594Z,101998.97
2023-02-25T23:12:42.067Z,101974.25
2023-02-25T23:15:11.754Z,101999.09
2023-02-25T23:17:40.479Z,102018.91
2023-02-25T23:20:11.366Z,102016.31
2023-02-25T23:22:39.843Z,101978.63
2023-02-25T23:25:10.078Z,102008.94
2023-02-25T23:27:39.959Z,101993.63
2023-02-25T23:30:10.428Z,102007.44
2023-02-25T23:32:40.826Z,102014.19
2023-02-25T23:35:11.086Z,102011.41
2023-02-25T23:37:39.835Z,101988.88
2023-02-25T23:40:11.890Z,101951.88
2023-02-25T23:42:43.074Z,102020.56
2023-02-25T23:45:15.276Z,101978.94
2023-02-25T23:47:44.132Z,102021.97
2023-02-25T23:50:16.458Z,102021.72
2023-02-25T23:52:47.276Z,101958.06
2023-02-25T23:55:16.321Z,102029.72
2023-02-25T23:57:46.096Z,102012.56
